Time;durP1;ratioP1;P1;durP2;ratioP2;P2;SDS_P1;SDS_P2;PMS_P1;PMS_P2;Temp;Humidity;BMP_temperature;BMP_pressure;BME280_temperature;BME280_humidity;BME280_pressure;Samples;Min_cycle;Max_cycle;Signal;HPM_P1;HPM_P2
2023/07/01 00:00:36;;;;;;;1.17;0.77;;;;;15.50;95658.00;;;;5052541;28;20246;-56
2023/07/01 00:03:04;;;;;;;0.80;0.80;;;;;15.10;95652.00;;;;5052669;28;20196;-56
2023/07/01 00:05:31;;;;;;;0.60;0.60;;;;;15.00;95654.00;;;;5052574;28;20367;-57
2023/07/01 00:07:59;;;;;;;0.97;0.97;;;;;15.20;95644.00;;;;5052643;28;20220;-56
2023/07/01 00:10:26;;;;;;;0.60;0.60;;;;;15.00;95640.00;;;;5052492;28;20250;-56
2023/07/01 00:12:54;;;;;;;1.57;1.37;;;;;14.90;95649.00;;;;5052412;28;20216;-57
2023/07/01 00:15:22;;;;;;;0.70;0.70;;;;;14.90;95650.00;;;;5052439;28;20216;-57
2023/07/01 00:17:50;;;;;;;0.70;0.70;;;;;14.90;95648.00;;;;5052724;28;20614;-56
2023/07/01 00:20:17;;;;;;;0.53;0.53;;;;;14.90;95641.00;;;;5052441;28;20196;-56
2023/07/01 00:22:44;;;;;;;0.80;0.80;;;;;15.00;95642.00;;;;5052418;28;20245;-57
2023/07/01 00:25:12;;;;;;;0.60;0.60;;;;;15.10;95643.00;;;;5052684;28;20533;-56
2023/07/01 00:27:39;;;;;;;0.70;0.70;;;;;15.10;95641.00;;;;5052318;28;20211;-57
2023/07/01 00:30:08;;;;;;;0.80;0.80;;;;;15.10;95649.00;;;;5052393;28;20184;-56
2023/07/01 00:32:37;;;;;;;0.70;0.70;;;;;15.10;95651.00;;;;5052829;28;20199;-61
2023/07/01 00:35:05;;;;;;;1.20;1.17;;;;;15.10;95646.00;;;;5052386;28;20200;-57
2023/07/01 00:37:32;;;;;;;0.83;0.83;;;;;15.10;95645.00;;;;5052279;28;20238;-57
2023/07/01 00:40:00;;;;;;;0.60;0.60;;;;;15.10;95641.00;;;;5052753;28;20219;-56
2023/07/01 00:42:27;;;;;;;0.77;0.77;;;;;15.10;95642.00;;;;5052280;28;20192;-57
2023/07/01 00:44:54;;;;;;;0.83;0.83;;;;;15.00;95638.00;;;;5052322;28;20199;-56
2023/07/01 00:47:22;;;;;;;0.67;0.67;;;;;15.00;95636.00;;;;5052563;28;20211;-56
2023/07/01 00:49:52;;;;;;;0.67;0.67;;;;;15.00;95635.00;;;;5052694;28;20196;-57
2023/07/01 00:52:19;;;;;;;0.87;0.87;;;;;15.00;95626.00;;;;5052212;28;20188;-57
2023/07/01 00:54:47;;;;;;;0.70;0.70;;;;;14.90;95632.00;;;;5054773;28;20196;-57
2023/07/01 00:57:14;;;;;;;0.60;0.60;;;;;14.80;95634.00;;;;5055670;28;20211;-56
2023/07/01 00:59:42;;;;;;;1.27;1.17;;;;;14.80;95641.00;;;;5055946;28;20192;-57
2023/07/01 01:02:18;;;;;;;0.70;0.70;;;;;14.70;95632.00;;;;5055915;28;20215;-57
2023/07/01 01:05:10;;;;;;;1.67;0.90;;;;;14.60;95640.00;;;;5055809;28;20176;-56
2023/07/01 01:07:45;;;;;;;0.90;0.90;;;;;14.50;95629.00;;;;5054788;28;20585;-56
2023/07/01 01:10:18;;;;;;;0.60;0.60;;;;;14.40;95634.00;;;;5055959;28;20533;-56
2023/07/01 01:12:46;;;;;;;1.83;1.17;;;;;14.50;95628.00;;;;5056192;28;20283;-56
2023/07/01 01:15:14;;;;;;;0.80;0.80;;;;;14.40;95637.00;;;;5055520;28;20199;-56
2023/07/01 01:17:43;;;;;;;0.67;0.67;;;;;14.30;95626.00;;;;5055731;28;20254;-57
2023/07/01 01:20:16;;;;;;;1.07;1.07;;;;;14.40;95630.00;;;;5055747;28;20188;-56
2023/07/01 01:22:47;;;;;;;0.70;0.70;;;;;14.40;95630.00;;;;5055709;28;20192;-56
2023/07/01 01:25:24;;;;;;;1.10;1.10;;;;;14.40;95634.00;;;;5055457;28;20184;-56
2023/07/01 01:27:54;;;;;;;1.43;1.37;;;;;14.50;95630.00;;;;5055330;28;20710;-56
2023/07/01 01:30:22;;;;;;;0.63;0.63;;;;;14.50;95633.00;;;;5055879;28;20265;-58
2023/07/01 01:32:50;;;;;;;0.83;0.83;;;;;14.60;95630.00;;;;5055699;28;20207;-56
2023/07/01 01:35:18;;;;;;;0.70;0.70;;;;;14.60;95620.00;;;;5055288;28;20203;-56
2023/07/01 01:37:49;;;;;;;0.60;0.60;;;;;14.60;95620.00;;;;5055076;28;20212;-56
2023/07/01 01:40:23;;;;;;;1.43;1.33;;;;;14.60;95620.00;;;;5055362;28;20180;-56
2023/07/01 01:42:54;;;;;;;1.00;0.97;;;;;14.60;95628.00;;;;5055155;28;20184;-56
2023/07/01 01:45:22;;;;;;;0.70;0.70;;;;;14.60;95625.00;;;;5055512;28;20645;-56
2023/07/01 01:47:51;;;;;;;0.70;0.70;;;;;14.60;95627.00;;;;5053602;28;20222;-56
2023/07/01 01:50:21;;;;;;;1.10;1.10;;;;;14.70;95615.00;;;;5055116;28;20200;-56
2023/07/01 01:52:51;;;;;;;0.60;0.60;;;;;14.60;95620.00;;;;5054870;28;20193;-56
2023/07/01 01:55:20;;;;;;;0.47;0.47;;;;;14.60;95617.00;;;;5055213;28;20219;-57
2023/07/01 01:57:47;;;;;;;0.87;0.87;;;;;14.50;95614.00;;;;5054515;28;20219;-56
2023/07/01 02:00:17;;;;;;;0.80;0.80;;;;;14.50;95621.00;;;;5055015;28;20553;-56
2023/07/01 02:02:44;;;;;;;0.70;0.70;;;;;14.50;95619.00;;;;5054712;28;20261;-56
2023/07/01 02:05:11;;;;;;;1.20;1.10;;;;;14.40;95621.00;;;;5054451;28;20192;-56
2023/07/01 02:07:39;;;;;;;1.00;1.00;;;;;14.40;95618.00;;;;5054536;28;20200;-56
2023/07/01 02:10:07;;;;;;;0.63;0.63;;;;;14.40;95612.00;;;;5054597;28;20291;-57
2023/07/01 02:12:35;;;;;;;0.60;0.60;;;;;14.40;95609.00;;;;5054576;28;20197;-57
2023/07/01 02:15:03;;;;;;;0.87;0.87;;;;;14.30;95610.00;;;;5054700;28;20238;-55
2023/07/01 02:17:31;;;;;;;1.00;1.00;;;;;14.30;95605.00;;;;5054276;28;20326;-55
2023/07/01 02:19:59;;;;;;;0.70;0.70;;;;;14.30;95607.00;;;;5054580;28;20195;-55
2023/07/01 02:22:26;;;;;;;1.20;1.20;;;;;14.30;95607.00;;;;5054489;28;20192;-55
2023/07/01 02:24:53;;;;;;;0.70;0.70;;;;;14.30;95605.00;;;;5054490;28;20200;-56
2023/07/01 02:27:22;;;;;;;0.50;0.50;;;;;14.30;95606.00;;;;5054172;28;20284;-55
2023/07/01 02:29:50;;;;;;;0.73;0.73;;;;;14.30;95599.00;;;;5054205;28;20192;-55
2023/07/01 02:32:17;;;;;;;0.70;0.70;;;;;14.30;95605.00;;;;5054125;28;20192;-56
2023/07/01 02:34:46;;;;;;;0.77;0.77;;;;;14.30;95599.00;;;;5054413;28;20192;-56
2023/07/01 02:37:13;;;;;;;2.27;1.13;;;;;14.20;95594.00;;;;5053915;28;20227;-56
2023/07/01 02:39:42;;;;;;;0.70;0.70;;;;;14.30;95607.00;;;;5054189;28;20196;-56
2023/07/01 02:42:09;;;;;;;0.90;0.90;;;;;14.30;95607.00;;;;5054146;28;20666;-56
2023/07/01 02:44:37;;;;;;;0.70;0.70;;;;;14.30;95600.00;;;;5053935;28;20188;-56
2023/07/01 02:47:04;;;;;;;1.40;1.30;;;;;14.10;95602.00;;;;5054033;28;20616;-56
2023/07/01 02:49:32;;;;;;;0.50;0.50;;;;;14.10;95591.00;;;;5054108;28;20196;-56
2023/07/01 02:52:00;;;;;;;0.60;0.60;;;;;14.10;95591.00;;;;5054017;28;20192;-56
2023/07/01 02:54:28;;;;;;;18.33;1.03;;;;;14.10;95605.00;;;;5053866;28;20219;-56
2023/07/01 02:56:55;;;;;;;0.70;0.70;;;;;14.00;95590.00;;;;5053320;28;20254;-56
2023/07/01 02:59:23;;;;;;;2.50;2.03;;;;;13.90;95595.00;;;;5053543;28;20226;-56
2023/07/01 03:01:50;;;;;;;1.00;1.00;;;;;14.00;95600.00;;;;5053640;28;20196;-56
2023/07/01 03:04:18;;;;;;;1.43;1.40;;;;;13.80;95594.00;;;;5053420;28;20249;-56
2023/07/01 03:06:45;;;;;;;0.73;0.73;;;;;13.90;95593.00;;;;5053295;28;20212;-55
2023/07/01 03:09:14;;;;;;;0.70;0.70;;;;;13.90;95590.00;;;;5053256;28;20196;-56
2023/07/01 03:11:42;;;;;;;0.50;0.50;;;;;13.90;95598.00;;;;5053453;28;20262;-56
2023/07/01 03:14:09;;;;;;;0.70;0.70;;;;;13.90;95600.00;;;;5051901;28;20253;-56
2023/07/01 03:16:37;;;;;;;0.50;0.50;;;;;13.90;95593.00;;;;5052529;28;20228;-56
2023/07/01 03:19:05;;;;;;;0.70;0.70;;;;;14.00;95595.00;;;;5053412;28;20195;-56
2023/07/01 03:21:33;;;;;;;0.60;0.60;;;;;14.00;95598.00;;;;5053267;28;20196;-56
2023/07/01 03:24:01;;;;;;;3.70;1.20;;;;;14.00;95598.00;;;;5053089;28;20250;-56
2023/07/01 03:26:29;;;;;;;1.87;1.77;;;;;14.00;95604.00;;;;5053000;28;20284;-56
2023/07/01 03:28:57;;;;;;;0.70;0.70;;;;;14.00;95601.00;;;;5053132;28;20197;-56
2023/07/01 03:31:24;;;;;;;0.50;0.50;;;;;14.00;95602.00;;;;5053134;28;20192;-56
2023/07/01 03:33:52;;;;;;;0.73;0.73;;;;;13.90;95599.00;;;;5052912;28;20196;-57
2023/07/01 03:36:19;;;;;;;0.90;0.90;;;;;13.90;95588.00;;;;5052889;28;20212;-56
2023/07/01 03:38:47;;;;;;;0.60;0.60;;;;;13.90;95594.00;;;;5052774;28;20192;-56
2023/07/01 03:41:14;;;;;;;0.60;0.60;;;;;13.90;95591.00;;;;5052714;28;20192;-56
2023/07/01 03:43:43;;;;;;;0.80;0.80;;;;;13.90;95588.00;;;;5052665;28;20198;-56
2023/07/01 03:46:10;;;;;;;1.40;1.30;;;;;13.70;95589.00;;;;5052808;28;20311;-57
2023/07/01 03:48:38;;;;;;;1.53;1.43;;;;;13.90;95600.00;;;;5053411;28;20219;-57
2023/07/01 03:51:05;;;;;;;1.70;1.60;;;;;13.90;95582.00;;;;5052490;28;20206;-56
2023/07/01 03:53:33;;;;;;;0.90;0.90;;;;;13.90;95596.00;;;;5052504;28;20241;-57
2023/07/01 03:56:00;;;;;;;0.77;0.77;;;;;13.80;95591.00;;;;5052314;28;20192;-56
2023/07/01 03:58:27;;;;;;;0.80;0.80;;;;;13.90;95588.00;;;;5052492;28;20188;-57
2023/07/01 04:00:57;;;;;;;0.60;0.60;;;;;13.80;95583.00;;;;5052494;28;20215;-57
2023/07/01 04:03:24;;;;;;;0.90;0.90;;;;;13.80;95587.00;;;;5052751;28;20192;-56
2023/07/01 04:05:52;;;;;;;0.47;0.47;;;;;13.90;95588.00;;;;5052438;28;20188;-59
2023/07/01 04:08:20;;;;;;;0.40;0.40;;;;;13.90;95585.00;;;;5052452;28;20230;-57
2023/07/01 04:10:48;;;;;;;0.83;0.83;;;;;13.90;95584.00;;;;5052690;28;20199;-57
2023/07/01 04:13:15;;;;;;;1.27;1.20;;;;;14.00;95592.00;;;;5052409;28;20196;-56
2023/07/01 04:15:42;;;;;;;0.77;0.77;;;;;14.00;95592.00;;;;5052674;28;20218;-56
2023/07/01 04:18:11;;;;;;;0.80;0.80;;;;;13.90;95593.00;;;;5052261;28;20220;-56
2023/07/01 04:20:40;;;;;;;0.70;0.70;;;;;13.90;95584.00;;;;5052326;28;20192;-56
2023/07/01 04:23:07;;;;;;;0.67;0.67;;;;;13.80;95587.00;;;;5052303;28;20218;-57
2023/07/01 04:25:34;;;;;;;1.10;1.10;;;;;13.80;95591.00;;;;5052479;28;20219;-56
2023/07/01 04:28:02;;;;;;;1.70;1.60;;;;;13.80;95590.00;;;;5053654;28;20229;-56
2023/07/01 04:30:29;;;;;;;0.60;0.60;;;;;13.70;95590.00;;;;5056301;28;20291;-56
2023/07/01 04:32:57;;;;;;;1.00;1.00;;;;;13.90;95591.00;;;;5056230;28;20223;-57
2023/07/01 04:35:25;;;;;;;1.00;1.00;;;;;13.90;95591.00;;;;5056192;28;20196;-55
2023/07/01 04:37:53;;;;;;;0.50;0.50;;;;;13.90;95588.00;;;;5056723;28;20306;-56
2023/07/01 04:40:20;;;;;;;0.97;0.97;;;;;13.90;95582.00;;;;5056441;28;20218;-57
2023/07/01 04:42:50;;;;;;;1.53;1.43;;;;;14.00;95581.00;;;;5054872;28;20249;-56
2023/07/01 04:45:19;;;;;;;1.10;1.10;;;;;14.10;95578.00;;;;5054728;28;20200;-56
2023/07/01 04:47:47;;;;;;;0.70;0.70;;;;;14.20;95569.00;;;;5055927;28;20207;-55
2023/07/01 04:50:14;;;;;;;0.70;0.70;;;;;14.30;95569.00;;;;5056334;28;20223;-57
2023/07/01 04:52:44;;;;;;;1.37;1.37;;;;;14.30;95576.00;;;;5056176;28;20200;-56
2023/07/01 04:55:11;;;;;;;0.80;0.80;;;;;14.40;95571.00;;;;5055830;28;20655;-56
2023/07/01 04:57:38;;;;;;;1.00;1.00;;;;;14.30;95572.00;;;;5054333;28;20243;-57
2023/07/01 05:00:09;;;;;;;1.30;1.20;;;;;14.40;95580.00;;;;5056290;28;20200;-56
2023/07/01 05:02:36;;;;;;;0.80;0.80;;;;;14.50;95571.00;;;;5056298;28;20196;-56
2023/07/01 05:05:04;;;;;;;0.83;0.83;;;;;14.50;95548.00;;;;5055734;28;20687;-56
2023/07/01 05:07:32;;;;;;;0.63;0.63;;;;;14.50;95577.00;;;;5055689;28;20307;-57
2023/07/01 05:10:01;;;;;;;0.80;0.80;;;;;14.50;95577.00;;;;5054239;28;20192;-57
2023/07/01 05:12:28;;;;;;;0.60;0.60;;;;;14.30;95578.00;;;;5055804;28;20195;-61
2023/07/01 05:14:56;;;;;;;0.70;0.70;;;;;14.10;95575.00;;;;5055448;28;20675;-57
2023/07/01 05:17:23;;;;;;;0.73;0.73;;;;;14.20;95585.00;;;;5055234;28;20220;-57
2023/07/01 05:19:51;;;;;;;0.80;0.80;;;;;14.40;95573.00;;;;5055399;28;20199;-57
2023/07/01 05:22:18;;;;;;;0.90;0.90;;;;;14.30;95577.00;;;;5055343;28;20192;-56
2023/07/01 05:24:46;;;;;;;0.80;0.80;;;;;14.60;95571.00;;;;5055273;28;20200;-56
2023/07/01 05:27:14;;;;;;;0.87;0.87;;;;;14.60;95569.00;;;;5055632;28;20216;-56
2023/07/01 05:29:42;;;;;;;0.63;0.63;;;;;14.70;95568.00;;;;5055459;28;20302;-56
2023/07/01 05:32:09;;;;;;;0.50;0.50;;;;;14.90;95558.00;;;;5053786;28;20658;-56
2023/07/01 05:34:37;;;;;;;0.70;0.70;;;;;14.90;95560.00;;;;5055081;28;20188;-56
2023/07/01 05:37:05;;;;;;;1.90;1.20;;;;;14.70;95562.00;;;;5054855;28;20679;-55
2023/07/01 05:39:32;;;;;;;0.70;0.70;;;;;14.70;95557.00;;;;5054101;28;20208;-57
2023/07/01 05:42:00;;;;;;;0.70;0.70;;;;;14.70;95562.00;;;;5054929;28;20196;-57
2023/07/01 05:44:29;;;;;;;0.63;0.63;;;;;14.80;95564.00;;;;5055122;28;20555;-57
2023/07/01 05:46:57;;;;;;;0.87;0.87;;;;;14.70;95562.00;;;;5054803;28;20271;-56
2023/07/01 05:49:24;;;;;;;0.67;0.67;;;;;15.00;95555.00;;;;5054904;28;20207;-56
2023/07/01 05:51:52;;;;;;;0.70;0.70;;;;;15.00;95558.00;;;;5054903;28;20258;-57
2023/07/01 05:54:19;;;;;;;1.67;1.57;;;;;15.00;95545.00;;;;5055008;28;20275;-56
2023/07/01 05:56:47;;;;;;;0.77;0.77;;;;;15.10;95554.00;;;;5053158;28;20238;-57
2023/07/01 05:59:14;;;;;;;0.80;0.80;;;;;15.20;95545.00;;;;5054612;28;20196;-56
2023/07/01 06:01:43;;;;;;;1.53;1.40;;;;;15.30;95553.00;;;;5054677;28;20200;-56
2023/07/01 06:04:10;;;;;;;0.90;0.90;;;;;15.40;95561.00;;;;5054589;28;20211;-57
2023/07/01 06:06:38;;;;;;;0.70;0.70;;;;;15.50;95545.00;;;;5054429;28;20216;-57
2023/07/01 06:09:08;;;;;;;1.10;1.10;;;;;15.40;95558.00;;;;5054398;28;20254;-57
2023/07/01 06:11:35;;;;;;;1.07;1.07;;;;;15.30;95548.00;;;;5054654;28;20223;-58
2023/07/01 06:14:03;;;;;;;0.97;0.97;;;;;15.50;95552.00;;;;5054705;28;20669;-56
2023/07/01 06:16:30;;;;;;;1.47;1.47;;;;;15.70;95557.00;;;;5054322;28;20210;-55
2023/07/01 06:18:59;;;;;;;1.13;1.13;;;;;16.00;95546.00;;;;5054372;28;20235;-56
2023/07/01 06:21:26;;;;;;;24.27;1.53;;;;;16.10;95542.00;;;;5054426;28;20196;-56
2023/07/01 06:23:55;;;;;;;0.50;0.50;;;;;16.00;95543.00;;;;5054110;28;20187;-56
2023/07/01 06:26:23;;;;;;;0.60;0.60;;;;;16.00;95541.00;;;;5054154;28;20216;-57
2023/07/01 06:28:51;;;;;;;1.20;1.10;;;;;16.00;95540.00;;;;5054062;28;20184;-56
2023/07/01 06:31:18;;;;;;;1.07;1.07;;;;;16.30;95546.00;;;;5052979;28;20223;-56
2023/07/01 06:33:46;;;;;;;0.97;0.97;;;;;16.30;95553.00;;;;5053973;28;20204;-56
2023/07/01 06:36:17;;;;;;;0.80;0.80;;;;;16.30;95549.00;;;;5053835;28;20207;-56
2023/07/01 06:38:46;;;;;;;0.80;0.80;;;;;16.50;95539.00;;;;5054000;28;20253;-56
2023/07/01 06:41:13;;;;;;;0.50;0.50;;;;;16.50;95540.00;;;;5053684;28;20200;-56
2023/07/01 06:43:41;;;;;;;1.53;0.90;;;;;16.60;95546.00;;;;5052501;28;20565;-56
2023/07/01 06:46:08;;;;;;;0.70;0.70;;;;;16.70;95538.00;;;;5053958;28;20200;-56
2023/07/01 06:48:36;;;;;;;0.83;0.83;;;;;16.80;95536.00;;;;5053753;28;20192;-57
2023/07/01 06:51:04;;;;;;;0.70;0.70;;;;;16.90;95538.00;;;;5053741;28;20224;-56
2023/07/01 06:53:33;;;;;;;2.90;1.57;;;;;17.10;95516.00;;;;5053838;28;20203;-57
2023/07/01 06:56:00;;;;;;;0.53;0.53;;;;;17.20;95533.00;;;;5053348;28;20671;-57
2023/07/01 06:58:31;;;;;;;0.60;0.60;;;;;17.50;95525.00;;;;5053433;28;20208;-56
2023/07/01 07:00:58;;;;;;;0.67;0.67;;;;;17.30;95528.00;;;;5053513;28;20627;-55
2023/07/01 07:03:26;;;;;;;0.73;0.73;;;;;17.60;95529.00;;;;5053410;28;20204;-55
2023/07/01 07:05:54;;;;;;;0.73;0.73;;;;;17.40;95535.00;;;;5053324;28;20675;-58
2023/07/01 07:08:22;;;;;;;0.80;0.80;;;;;17.60;95534.00;;;;5053250;28;20270;-56
2023/07/01 07:10:51;;;;;;;0.40;0.40;;;;;17.40;95534.00;;;;5053246;28;20193;-56
2023/07/01 07:13:18;;;;;;;0.60;0.60;;;;;17.40;95531.00;;;;5053292;28;20196;-57
2023/07/01 07:15:46;;;;;;;0.80;0.80;;;;;17.30;95531.00;;;;5053245;28;20192;-57
2023/07/01 07:18:14;;;;;;;0.70;0.70;;;;;17.50;95525.00;;;;5053030;28;20239;-57
2023/07/01 07:20:41;;;;;;;0.70;0.70;;;;;17.80;95537.00;;;;5053849;28;20207;-57
2023/07/01 07:23:09;;;;;;;0.90;0.90;;;;;17.60;95523.00;;;;5053057;28;20271;-58
2023/07/01 07:25:37;;;;;;;0.60;0.60;;;;;18.00;95512.00;;;;5053232;28;20221;-58
2023/07/01 07:28:06;;;;;;;0.70;0.70;;;;;18.00;95508.00;;;;5052902;28;20214;-57
2023/07/01 07:30:33;;;;;;;0.63;0.63;;;;;18.10;95507.00;;;;5053240;28;20258;-57
2023/07/01 07:33:01;;;;;;;0.90;0.90;;;;;18.00;95505.00;;;;5053281;28;20200;-57
2023/07/01 07:35:28;;;;;;;0.60;0.60;;;;;18.20;95501.00;;;;5052878;28;20195;-57
2023/07/01 07:37:55;;;;;;;0.70;0.70;;;;;18.20;95509.00;;;;5052667;28;20234;-57
2023/07/01 07:40:23;;;;;;;0.63;0.63;;;;;18.50;95512.00;;;;5052792;28;20210;-55
2023/07/01 07:42:53;;;;;;;1.40;1.10;;;;;18.00;95498.00;;;;5052778;28;20195;-57
2023/07/01 07:45:23;;;;;;;6.80;0.80;;;;;18.00;95512.00;;;;5052847;28;20665;-57
2023/07/01 07:47:50;;;;;;;0.50;0.50;;;;;18.20;95496.00;;;;5052670;28;20259;-55
2023/07/01 07:50:21;;;;;;;0.67;0.67;;;;;18.50;95506.00;;;;5052721;28;20281;-56
2023/07/01 07:52:49;;;;;;;0.63;0.63;;;;;18.40;95435.00;;;;5052755;28;20270;-55
2023/07/01 07:55:16;;;;;;;0.87;0.87;;;;;18.40;95504.00;;;;5052510;28;20253;-56
2023/07/01 07:57:44;;;;;;;0.87;0.87;;;;;18.10;95506.00;;;;5058983;22;20239;-61
2023/07/01 08:00:13;;;;;;;1.10;1.10;;;;;18.30;95501.00;;;;5033354;28;20201;-60
2023/07/01 08:02:44;;;;;;;0.60;0.60;;;;;18.80;95496.00;;;;5032849;28;20196;-60
2023/07/01 08:05:15;;;;;;;0.80;0.80;;;;;18.80;95492.00;;;;5032835;28;20548;-59
2023/07/01 08:07:43;;;;;;;0.60;0.60;;;;;18.50;95490.00;;;;5032871;28;20213;-61
2023/07/01 08:10:10;;;;;;;0.63;0.63;;;;;18.80;95495.00;;;;5032927;28;20192;-61
2023/07/01 08:12:38;;;;;;;0.80;0.80;;;;;18.60;95480.00;;;;5031406;28;20204;-61
2023/07/01 08:15:07;;;;;;;0.80;0.80;;;;;19.00;95476.00;;;;5032616;28;20193;-60
2023/07/01 08:17:34;;;;;;;0.73;0.73;;;;;19.00;95495.00;;;;5032567;28;20211;-60
2023/07/01 08:20:04;;;;;;;0.60;0.60;;;;;19.20;95492.00;;;;5032646;28;20192;-61
2023/07/01 08:22:31;;;;;;;0.90;0.90;;;;;19.10;95511.00;;;;5032518;28;20288;-59
2023/07/01 08:24:59;;;;;;;0.57;0.57;;;;;18.50;95495.00;;;;5032529;28;20205;-59
2023/07/01 08:27:27;;;;;;;0.63;0.63;;;;;18.50;95491.00;;;;5032347;28;20208;-61
2023/07/01 08:29:54;;;;;;;3.20;1.70;;;;;18.80;95482.00;;;;5031178;28;20201;-61
2023/07/01 08:32:21;;;;;;;0.50;0.50;;;;;18.80;95487.00;;;;5032471;28;20656;-60
2023/07/01 08:34:49;;;;;;;0.90;0.90;;;;;18.90;95485.00;;;;5032674;28;20192;-62
2023/07/01 08:37:18;;;;;;;1.47;1.37;;;;;19.10;95484.00;;;;5030831;28;20696;-62
2023/07/01 08:39:45;;;;;;;0.73;0.73;;;;;19.40;95489.00;;;;5032411;28;20332;-62
2023/07/01 08:42:19;;;;;;;0.87;0.87;;;;;19.40;95481.00;;;;5032380;28;20199;-61
2023/07/01 08:44:47;;;;;;;0.93;0.93;;;;;19.10;95492.00;;;;5032697;28;20530;-61
2023/07/01 08:47:16;;;;;;;1.83;1.73;;;;;19.10;95497.00;;;;5032299;28;20208;-62
2023/07/01 08:49:48;;;;;;;0.50;0.50;;;;;19.10;95482.00;;;;5032291;28;20188;-62
2023/07/01 08:52:20;;;;;;;0.70;0.70;;;;;18.90;95496.00;;;;5032466;28;20193;-62
2023/07/01 08:54:49;;;;;;;0.63;0.63;;;;;18.70;95491.00;;;;5032218;28;20191;-61
2023/07/01 08:57:17;;;;;;;0.80;0.80;;;;;18.40;95481.00;;;;5030768;28;20282;-58
2023/07/01 08:59:44;;;;;;;0.40;0.40;;;;;18.60;95481.00;;;;5032375;28;20640;-62
2023/07/01 09:02:15;;;;;;;0.70;0.70;;;;;18.80;95475.00;;;;5032459;28;20276;-63
2023/07/01 09:04:42;;;;;;;0.60;0.60;;;;;18.90;95478.00;;;;5032452;28;20234;-60
2023/07/01 09:07:10;;;;;;;4.43;1.30;;;;;18.80;95482.00;;;;5031987;28;20209;-60
2023/07/01 09:09:40;;;;;;;0.73;0.73;;;;;18.70;95480.00;;;;5030914;28;20686;-60
2023/07/01 09:12:08;;;;;;;0.57;0.57;;;;;18.90;95476.00;;;;5032324;28;20213;-61
2023/07/01 09:14:58;;;;;;;0.70;0.70;;;;;19.20;95464.00;;;;5032837;28;20200;-61
2023/07/01 09:17:36;;;;;;;0.73;0.73;;;;;19.10;95462.00;;;;5035801;28;20299;-60
2023/07/01 09:20:06;;;;;;;0.70;0.70;;;;;19.40;95468.00;;;;5035752;28;20208;-61
2023/07/01 09:22:35;;;;;;;0.90;0.90;;;;;19.20;95453.00;;;;5035683;28;20541;-60
2023/07/01 09:25:04;;;;;;;1.00;1.00;;;;;19.00;95458.00;;;;5035822;28;20189;-61
2023/07/01 09:27:41;;;;;;;0.90;0.90;;;;;18.70;95460.00;;;;5035374;28;20230;-61
2023/07/01 09:30:25;;;;;;;1.17;1.07;;;;;19.10;95459.00;;;;5034315;28;20238;-61
2023/07/01 09:32:52;;;;;;;0.70;0.70;;;;;18.80;95451.00;;;;5034283;28;20193;-61
2023/07/01 09:35:20;;;;;;;0.50;0.50;;;;;19.10;95481.00;;;;5035416;28;20188;-59
2023/07/01 09:38:01;;;;;;;3.53;0.87;;;;;19.20;95448.00;;;;5035538;28;20212;-61
2023/07/01 09:40:30;;;;;;;0.73;0.73;;;;;19.30;95450.00;;;;5035363;28;20181;-62
2023/07/01 09:42:57;;;;;;;0.63;0.63;;;;;19.70;95447.00;;;;5035341;28;20201;-61
2023/07/01 09:45:25;;;;;;;0.50;0.50;;;;;19.80;95453.00;;;;5035408;28;20196;-61
2023/07/01 09:47:52;;;;;;;0.60;0.60;;;;;19.90;95436.00;;;;5033771;28;20217;-62
2023/07/01 09:50:24;;;;;;;0.80;0.80;;;;;19.80;95436.00;;;;5035129;28;20221;-60
2023/07/01 09:52:53;;;;;;;0.60;0.60;;;;;20.20;95437.00;;;;5033804;28;20199;-60
2023/07/01 09:55:22;;;;;;;1.10;1.00;;;;;20.30;95439.00;;;;5034975;28;20197;-61
2023/07/01 09:57:51;;;;;;;0.60;0.60;;;;;20.10;95439.00;;;;5034660;28;20302;-60
2023/07/01 10:00:19;;;;;;;0.67;0.67;;;;;20.20;95426.00;;;;5035021;28;20223;-62
2023/07/01 10:02:47;;;;;;;0.63;0.63;;;;;20.30;95434.00;;;;5034822;28;20189;-61
2023/07/01 10:05:15;;;;;;;0.80;0.80;;;;;20.30;95420.00;;;;5035016;28;20216;-61
2023/07/01 10:07:43;;;;;;;0.80;0.80;;;;;20.50;95405.00;;;;5034651;28;20215;-62
2023/07/01 10:10:16;;;;;;;0.90;0.90;;;;;20.40;95409.00;;;;5034691;28;20227;-61
2023/07/01 10:12:44;;;;;;;0.67;0.67;;;;;20.60;95412.00;;;;5034713;28;20600;-62
2023/07/01 10:15:15;;;;;;;0.50;0.50;;;;;20.50;95418.00;;;;5034824;28;20208;-61
2023/07/01 10:17:46;;;;;;;1.13;1.13;;;;;20.60;95414.00;;;;5034477;28;20208;-62
2023/07/01 10:20:28;;;;;;;0.67;0.67;;;;;20.60;95401.00;;;;5033099;28;20220;-62
2023/07/01 10:22:56;;;;;;;0.80;0.80;;;;;20.80;95400.00;;;;5035018;28;20196;-60
2023/07/01 10:25:31;;;;;;;2.63;0.80;;;;;20.50;95434.00;;;;5034932;28;20197;-59
2023/07/01 10:28:16;;;;;;;1.90;0.90;;;;;20.60;95399.00;;;;5034236;28;20208;-62
2023/07/01 10:31:13;;;;;;;0.67;0.67;;;;;20.90;95417.00;;;;5034318;28;20185;-60
2023/07/01 10:33:54;;;;;;;0.57;0.57;;;;;21.40;95405.00;;;;5034293;28;20205;-62
2023/07/01 10:36:21;;;;;;;0.53;0.53;;;;;20.90;95415.00;;;;5034468;28;20181;-62
2023/07/01 10:38:49;;;;;;;0.60;0.60;;;;;21.30;95404.00;;;;5034082;28;20220;-61
2023/07/01 10:41:54;;;;;;;0.50;0.50;;;;;21.00;95392.00;;;;5034130;28;20637;-60
2023/07/01 10:44:25;;;;;;;0.80;0.80;;;;;21.10;95412.00;;;;5034163;28;20307;-60
2023/07/01 10:47:24;;;;;;;0.63;0.63;;;;;20.70;95388.00;;;;5033955;28;20185;-61
2023/07/01 10:50:05;;;;;;;0.70;0.70;;;;;21.00;95394.00;;;;4973371;28;20180;-61
2023/07/01 10:52:33;;;;;;;0.70;0.70;;;;;20.90;95399.00;;;;5026292;28;20308;-61
2023/07/01 10:55:02;;;;;;;0.60;0.60;;;;;21.20;95402.00;;;;5033675;28;20203;-61
2023/07/01 10:57:31;;;;;;;1.00;0.90;;;;;21.20;95398.00;;;;5032305;28;20730;-61
2023/07/01 11:00:35;;;;;;;0.50;0.50;;;;;20.90;95401.00;;;;5033973;28;20200;-61
2023/07/01 11:03:04;;;;;;;0.50;0.50;;;;;21.00;95397.00;;;;5033627;28;20196;-61
2023/07/01 11:05:32;;;;;;;0.60;0.60;;;;;20.70;95407.00;;;;5033772;28;20196;-61
2023/07/01 11:08:08;;;;;;;0.90;0.83;;;;;20.50;95406.00;;;;5033864;28;20247;-60
2023/07/01 11:10:36;;;;;;;0.70;0.70;;;;;20.60;95412.00;;;;5033415;28;20211;-61
2023/07/01 11:13:04;;;;;;;0.60;0.60;;;;;20.00;95414.00;;;;5033331;28;20192;-61
2023/07/01 11:15:31;;;;;;;0.67;0.67;;;;;20.10;95399.00;;;;5032054;28;20725;-60
2023/07/01 11:17:59;;;;;;;0.53;0.53;;;;;20.00;95408.00;;;;5033245;28;20219;-60
2023/07/01 11:20:45;;;;;;;1.20;1.20;;;;;20.00;95416.00;;;;5033266;28;20212;-60
2023/07/01 11:23:13;;;;;;;0.53;0.53;;;;;19.90;95408.00;;;;5033294;28;20268;-61
2023/07/01 11:25:42;;;;;;;0.60;0.60;;;;;19.40;95407.00;;;;5033077;28;20189;-60
2023/07/01 11:28:09;;;;;;;0.60;0.60;;;;;19.80;95405.00;;;;5031540;28;20232;-61
2023/07/01 11:30:36;;;;;;;0.60;0.60;;;;;19.60;95414.00;;;;5033085;28;20705;-62
2023/07/01 11:33:13;;;;;;;0.70;0.70;;;;;19.70;95410.00;;;;5031810;28;20266;-61
2023/07/01 11:35:51;;;;;;;0.70;0.70;;;;;19.70;95405.00;;;;5033131;28;20215;-61
2023/07/01 11:38:26;;;;;;;1.53;1.10;;;;;19.80;95407.00;;;;5032403;28;20239;-61
2023/07/01 11:40:54;;;;;;;1.10;0.73;;;;;20.20;95402.00;;;;5033147;28;20187;-61
2023/07/01 11:43:21;;;;;;;1.23;1.03;;;;;20.10;95415.00;;;;5033311;28;20192;-61
2023/07/01 11:45:50;;;;;;;0.60;0.60;;;;;19.70;95413.00;;;;5033002;28;20201;-60
2023/07/01 11:48:29;;;;;;;11.70;0.80;;;;;20.00;95401.00;;;;5033159;28;20609;-60
2023/07/01 11:50:58;;;;;;;0.50;0.50;;;;;20.00;95410.00;;;;5033040;28;20654;-61
2023/07/01 11:53:27;;;;;;;0.70;0.70;;;;;20.10;95387.00;;;;5033217;28;20204;-61
2023/07/01 11:55:56;;;;;;;0.50;0.50;;;;;20.60;95391.00;;;;5033174;28;20702;-60
2023/07/01 11:58:29;;;;;;;1.40;0.77;;;;;20.40;95395.00;;;;5032822;28;20290;-60
2023/07/01 12:00:57;;;;;;;0.60;0.60;;;;;20.60;95391.00;;;;5033177;28;20678;-60
2023/07/01 12:03:24;;;;;;;1.23;1.13;;;;;20.50;95383.00;;;;5032758;28;20203;-60
2023/07/01 12:05:52;;;;;;;0.70;0.70;;;;;20.40;95380.00;;;;5032740;28;20199;-60
2023/07/01 12:08:21;;;;;;;0.50;0.50;;;;;20.90;95375.00;;;;5032567;28;20317;-60
2023/07/01 12:10:48;;;;;;;0.70;0.70;;;;;20.90;95387.00;;;;5032684;28;20195;-61
2023/07/01 12:13:32;;;;;;;0.90;0.90;;;;;20.70;95387.00;;;;5032938;28;20554;-60
2023/07/01 12:16:00;;;;;;;1.87;0.87;;;;;21.20;95387.00;;;;5032834;28;20197;-61
2023/07/01 12:18:29;;;;;;;0.70;0.70;;;;;21.40;95379.00;;;;5031151;28;20224;-61
2023/07/01 12:20:57;;;;;;;0.83;0.83;;;;;21.30;95377.00;;;;5032249;28;20212;-61
2023/07/01 12:23:26;;;;;;;0.57;0.57;;;;;20.80;95373.00;;;;5032456;28;20196;-60
2023/07/01 12:25:55;;;;;;;0.50;0.50;;;;;20.60;95359.00;;;;5032632;28;20188;-60
2023/07/01 12:28:22;;;;;;;0.83;0.83;;;;;20.60;95376.00;;;;5032796;28;20221;-62